• Join FlightAware (Why Join?)
  • Login
  • US Flag GB Flag 
20:27 EDT


 

Airport Tracker/Info


-or-


 

Live Flight TrackerFlight Track Log ✈ BOE5 ✈ 09-Feb-2013 ✈ KBFI - KBFI

Flight Track Log - Related Links

Times and Time Zones

All times are in EST time to prevent confusion due to time zone crossing. See the BOE5 flight status page for this flight to view local times or setup timezone preferences in your user account.

Time Position Orientation Groundspeed Altitude Reporting Facility
EST Latitude Longitude Course Direction KTS MPH feet Rate Location/Type
15:32 47.5140 -122.2890 149° Southeast 155 178 700  Level FlightAware
15:32 47.5040 -122.2790 146° Southeast 169 194 1,200 1,800 Climbing FlightAware
15:33 47.4690 -122.2450 147° Southeast 230 265 2,500 1,860 Climbing FlightAware
15:34 47.4410 -122.2010 133° Southeast 263 303 3,700 2,040 Climbing FlightAware
15:34 47.4360 -122.1680 103° East 268 308 4,400 1,800 Climbing FlightAware
15:34 47.4350 -122.1550 96° East 268 308 4,600 300 Climbing FlightAware
15:35 47.4310 -122.1120 98° East 268 308 4,600 2,760 Level FlightAware
15:35 47.4325 -122.0286 91° East 275 316 7,600 3,300 Climbing Seattle Center
15:37 47.5167 -122.3000 247° West  Level FlightAware Approximate
15:37 47.4310 -121.8420 247° West 12,600  Level FlightAware
15:38 47.4300 -121.7070 91° East 347 399 14,800 3,780 Climbing FlightAware
15:39 47.4280 -121.6010 92° East 359 413 18,900 4,320 Climbing FlightAware
15:39 47.4270 -121.4960 91° East 376 433 21,000 1,800 Climbing FlightAware
15:40 47.4260 -121.4100 91° East 379 436 21,500 300 Climbing FlightAware
15:41 47.4260 -121.3000 90° East 379 436 21,500 3,480 Level FlightAware
15:41 47.4210 -121.1490 93° East 414 476 26,500 4,920 Climbing FlightAware
15:42 47.4190 -121.0330 91° East 420 483 28,100 2,220 Climbing FlightAware
15:43 47.4160 -120.9040 92° East 428 493 29,700 1,920 Climbing FlightAware
15:44 47.4140 -120.7750 91° East 434 499 31,000 1,200 Climbing FlightAware
15:45 47.4120 -120.5870 91° East 443 510 31,900 1,800 Climbing FlightAware
15:45 47.4070 -120.4650 93° East 446 513 34,200 2,160 Climbing FlightAware
15:46 47.4040 -120.3170 92° East 458 527 35,000 540 Climbing FlightAware
15:47 47.4000 -120.1870 93° East 472 543 35,000  Level FlightAware
15:47 47.3970 -120.0630 92° East 469 540 35,000  Level FlightAware
15:48 47.3930 -119.9160 92° East 463 533 35,000  Level FlightAware
15:49 47.3890 -119.7930 93° East 459 528 35,000  Level FlightAware
15:49 47.3860 -119.6770 92° East 460 529 35,000  Level FlightAware
15:50 47.3840 -119.5700 92° East 460 529 35,000  Level FlightAware
15:51 47.3810 -119.4630 92° East 460 529 35,000  Level FlightAware
15:52 47.3780 -119.3300 92° East 460 529 35,000  Level FlightAware
15:52 47.3750 -119.2230 92° East 460 529 35,000  Level FlightAware
15:53 47.3730 -119.1160 92° East 460 529 35,000  Level FlightAware
15:54 47.3700 -119.0090 92° East 460 529 35,000  Level FlightAware
15:55 47.4528 -118.7194 92° East 451 519 35,000  Level Seattle Center
15:56 47.4708 -118.5367 82° East 451 519 35,000  Level Seattle Center
15:57 47.4908 -118.3542 81° East 451 519 35,000 -60 Level Seattle Center
15:58 47.5092 -118.1714 81° East 451 519 34,900  Descending Seattle Center
15:59 47.5056 -117.9839 92° East 469 540 35,000  Climbing Seattle Center
16:00 47.4075 -117.8369 135° Southeast 528 608 35,000  Level Seattle Center
16:01 47.2611 -117.8489 183° South 548 631 35,000 -60 Level Seattle Center
16:02 47.1275 -117.9453 206° Southwest 539 620 34,900  Descending Seattle Center
16:03 46.9928 -118.0422 206° Southwest 542 624 35,000  Climbing Seattle Center
16:04 46.8569 -118.1389 206° Southwest 543 625 34,900  Descending Seattle Center
16:05 46.7219 -118.2331 206° Southwest 541 623 35,000  Climbing Seattle Center
16:06 46.5883 -118.3281 206° Southwest 539 620 35,000 -60 Level Seattle Center
16:07 46.4536 -118.4219 206° Southwest 538 619 34,900  Descending Seattle Center
16:08 46.3175 -118.5161 206° Southwest 542 624 35,000  Climbing Seattle Center
16:09 46.1711 -118.6169 206° Southwest 544 626 35,000  Level Seattle Center
16:10 46.0344 -118.7103 205° Southwest 544 626 35,000  Level Seattle Center
16:11 45.9214 -118.8397 219° Southwest 528 608 35,000  Level Seattle Center
16:12 45.9083 -119.0222 264° West 469 540 35,000  Level Seattle Center
16:13 45.9742 -119.1550 306° West 420 483 35,000  Level Seattle Center
16:14 46.0936 -119.1978 346° North 391 450 35,000  Level Seattle Center
16:15 46.1872 -119.1358 25° Northeast 376 433 35,000  Level Seattle Center
16:16 46.2444 -118.9956 59° Northeast 408 470 35,000 -60 Level Seattle Center
16:17 46.2794 -118.8472 71° East 417 480 34,900 -60 Descending Seattle Center
16:18 46.3189 -118.6900 70° East 417 480 34,900  Level Seattle Center
16:19 46.3583 -118.5322 70° East 420 483 35,000  Climbing Seattle Center
16:20 46.4406 -118.4289 41° Northeast 393 452 35,000 -60 Level Seattle Center
16:21 46.5347 -118.3633 26° Northeast 380 437 34,900  Descending Seattle Center
16:22 46.6300 -118.2964 26° Northeast 382 440 35,000  Climbing Seattle Center
16:23 46.7250 -118.2300 26° Northeast 381 438 35,000  Level Seattle Center
16:24 46.8214 -118.1608 26° Northeast 385 443 35,000 -60 Level Seattle Center
16:25 46.9169 -118.0936 26° Northeast 383 441 34,900 -60 Descending Seattle Center
16:26 47.0325 -118.0106 26° Northeast 385 443 34,900  Level Seattle Center
16:27 47.1286 -117.9419 26° Northeast 385 443 35,000  Climbing Seattle Center
16:28 47.2231 -117.8725 27° Northeast 382 440 35,000  Level Seattle Center
16:29 47.3236 -117.8206 19° North 387 445 35,000 -60 Level Seattle Center
16:30 47.4244 -117.8506 349° North 378 435 34,900  Descending Seattle Center
16:31 47.4944 -117.9747 310° West 402 463 35,000  Climbing Seattle Center
16:32 47.4953 -118.1531 270° West 456 525 34,900  Descending Seattle Center
16:33 47.3969 -118.2961 225° Southwest 523 602 35,000  Climbing Seattle Center
16:34 47.2508 -118.2769 175° South 543 625 34,900  Descending Seattle Center
16:35 47.1086 -118.2056 161° South 543 625 35,000  Climbing Seattle Center
16:36 46.9681 -118.1353 161° South 539 620 35,000 -60 Level Seattle Center
16:37 46.8233 -118.1617 187° South 542 624 34,900  Descending Seattle Center
16:38 46.6897 -118.2556 206° Southwest 534 615 35,000  Climbing Seattle Center
16:39 46.5550 -118.3508 206° Southwest 537 618 34,900  Descending Seattle Center
16:40 46.4197 -118.4453 206° Southwest 540 621 35,000  Climbing Seattle Center
16:41 46.2589 -118.5567 206° Southwest 538 619 34,900  Descending Seattle Center
16:42 46.1403 -118.6386 206° Southwest 539 620 35,000  Climbing Seattle Center
16:43 46.0042 -118.7322 206° Southwest 541 623 35,000  Level Seattle Center
16:44 45.8986 -118.8708 222° Southwest 531 611 35,000  Level Seattle Center
16:45 45.9083 -119.0808 274° West 451 519 35,000  Level Seattle Center
16:46 45.9903 -119.1844 319° Northwest 406 467 35,000  Level Seattle Center
16:47 46.0942 -119.1983 355° North 387 445 35,000  Level Seattle Center
16:48 46.1872 -119.1311 27° Northeast 384 442 35,000 240 Level Seattle Center
16:49 46.2872 -119.1039 11° North 373 429 35,500 480 Climbing Seattle Center
16:50 46.3903 -119.1272 351° North 376 433 36,000 240 Climbing Seattle Center
16:51 46.4931 -119.1528 350° North 375 432 36,000  Level Seattle Center
16:52 46.5969 -119.1808 349° North 378 435 36,000  Level Seattle Center
16:53 46.7000 -119.2078 350° North 378 435 36,000  Level Seattle Center
16:54 46.7989 -119.2339 350° North 378 435 36,000  Level Seattle Center
16:55 46.9022 -119.2603 350° North 378 435 36,000  Level Seattle Center
16:56 47.0272 -119.2950 349° North 380 437 36,000  Level Seattle Center
16:57 47.1308 -119.3222 350° North 380 437 36,000  Level Seattle Center
16:58 47.2353 -119.3492 352° North 380 437 36,000  Level Seattle Center
16:59 47.3403 -119.3753 351° North 381 438 36,000  Level Seattle Center
17:00 47.4453 -119.4003 283° West 382 440 36,000  Level Seattle Center
17:01 47.5500 -119.4258 278° West 383 441 36,000  Level Seattle Center
17:03 47.7070 -119.4610 350° North 377 434 36,000  Level FlightAware
17:04 47.7750 -119.4760 352° North 378 435 36,000  Level FlightAware
17:04 47.8390 -119.4910 351° North 378 435 36,000  Level FlightAware
17:05 47.9100 -119.5070 351° North 378 435 36,000  Level FlightAware
17:05 47.9310 -119.6440 283° West 447 514 36,000  Level FlightAware
17:06 47.9430 -119.7680 278° West 451 519 36,000  Level FlightAware
17:07 47.9560 -119.9060 278° West 451 519 36,000  Level FlightAware
17:08 47.9670 -120.0310 278° West 452 520 36,000  Level FlightAware
17:08 47.9790 -120.1540 278° West 451 519 36,000  Level FlightAware
17:09 47.9920 -120.2950 278° West 454 522 36,000  Level FlightAware
17:10 48.0040 -120.4330 277° West 453 521 36,000  Level FlightAware
17:10 48.0150 -120.5550 278° West 453 521 36,000  Level FlightAware
17:11 48.0270 -120.6960 277° West 452 520 36,000  Level FlightAware
17:12 48.0290 -120.8180 271° West 465 535 36,000  Level FlightAware
17:12 48.0250 -120.9480 267° West 466 536 36,000  Level FlightAware
17:13 48.0210 -121.0930 268° West 465 535 36,000  Level FlightAware
17:14 48.0170 -121.2180 267° West 467 537 36,000  Level FlightAware
17:15 48.0130 -121.3650 268° West 469 540 36,000  Level FlightAware
17:15 48.0100 -121.5000 268° West 470 541 36,000  Level FlightAware
17:16 48.0060 -121.6480 268° West 471 542 36,000  Level FlightAware
17:17 48.0070 -121.7750 271° West 462 532 36,000  Level FlightAware
17:17 48.0200 -121.9020 279° West 454 522 36,000  Level FlightAware
17:18 48.0350 -122.0390 279° West 454 522 36,000  Level FlightAware
17:19 48.0490 -122.1610 280° West 454 522 36,000  Level FlightAware
17:19 48.0630 -122.2870 279° West 454 522 36,000  Level FlightAware
17:20 48.0790 -122.4260 280° West 455 524 36,000  Level FlightAware
17:21 48.0930 -122.5510 280° West 456 525 36,000  Level FlightAware
17:22 48.1080 -122.6910 279° West 458 527 36,000 -180 Level FlightAware
17:22 48.1210 -122.8140 279° West 459 528 35,800 -900 Descending FlightAware
17:23 48.1360 -122.9580 279° West 460 529 34,800 -1,320 Descending FlightAware
17:24 48.1490 -123.0820 279° West 460 529 34,000 -1,800 Descending FlightAware
17:24 48.1620 -123.2080 279° West 461 531 32,400 -3,180 Descending FlightAware
17:25 48.1770 -123.3520 279° West 475 547 29,500 -3,960 Descending FlightAware
17:26 48.1910 -123.4860 279° West 482 555 26,800 -3,780 Descending FlightAware
17:26 48.2030 -123.6140 278° West 447 514 24,500 -2,700 Descending FlightAware
17:27 48.2160 -123.7420 279° West 417 480 23,000 -1,080 Descending FlightAware
17:28 48.2280 -123.8590 279° West 419 482 23,000  Level FlightAware
17:29 48.2390 -123.9890 277° West 431 496 23,000  Level FlightAware
17:29 48.2210 -124.0630 250° West 454 522 23,000  Level FlightAware
17:29 48.1980 -124.0960 224° Southwest 468 539 23,000  Level FlightAware
17:30 48.1690 -124.1170 206° Southwest 478 550 23,000 -2,520 Level FlightAware
17:30 48.0870 -124.1490 195° South 463 533 20,700 -4,320 Descending FlightAware
17:31 48.0030 -124.1510 181° South 435 501 17,300 -5,280 Descending FlightAware
17:31 47.9740 -124.1310 155° Southeast 427 491 15,900 -5,220 Descending FlightAware
17:31 47.9500 -124.1030 142° Southeast 423 487 14,700 -3,780 Descending FlightAware
17:32 47.9220 -124.0320 120° Southeast 407 468 13,100 -2,520 Descending FlightAware
17:33 47.9230 -123.8840 89° East 375 432 11,200 -1,560 Descending FlightAware
17:33 47.9330 -123.7870 81° East 371 427 10,700 -360 Descending FlightAware
17:34 47.9460 -123.6690 81° East 370 426 10,700  Level FlightAware
17:35 47.9570 -123.5680 81° East 370 426 10,700  Level FlightAware
17:36 47.9680 -123.4650 81° East 368 423 10,700  Level FlightAware
17:36 47.9800 -123.3520 81° East 368 423 10,700  Level FlightAware
17:37 47.9900 -123.2520 81° East 367 422 10,700  Level FlightAware
17:38 48.0020 -123.1380 81° East 364 419 10,700  Level FlightAware
17:38 48.0120 -123.0410 81° East 364 419 10,700  Level FlightAware
17:39 48.0220 -122.9440 81° East 321 369 10,700 -180 Level FlightAware
17:40 48.0180 -122.8530 94° East 298 343 10,500 -900 Descending FlightAware
17:40 47.9970 -122.8120 127° Southeast 294 338 9,700 -1,680 Descending FlightAware
17:40 47.9800 -122.7970 149° Southeast 298 343 9,400 -1,380 Descending FlightAware
17:41 47.9440 -122.7640 148° Southeast 283 326 8,700 -1,200 Descending FlightAware
17:41 47.9200 -122.7360 142° Southeast 274 315 8,300 -600 Descending FlightAware
17:42 47.8930 -122.6930 133° Southeast 266 306 8,100 -1,200 Descending FlightAware
17:43 47.8430 -122.6070 131° Southeast 259 298 6,300 -2,400 Descending FlightAware
17:43 47.8270 -122.5770 128° Southeast 250 288 4,900 -2,760 Descending FlightAware
17:44 47.8144 -122.5550 149° Southeast 251 289 4,700 -1,980 Descending Seattle Center
17:45 47.7480 -122.4870 143° Southeast 212 244 2,000 -1,920 Descending FlightAware
17:45 47.7390 -122.4800 152° Southeast 204 235 1,900 240 Descending FlightAware
17:46 47.7103 -122.4578 151° Southeast 190 219 2,200 300 Climbing Seattle Center
17:46 47.6961 -122.4431 151° Southeast 193 222 2,200 -240 Level Seattle Center
17:48 47.6280 -122.3860 150° Southeast 179 206 1,800 -480 Descending FlightAware
17:48 47.6040 -122.3650 149° Southeast 157 181 1,200 -960 Descending FlightAware
17:49 47.5870 -122.3500 149° Southeast 142 163 800 -900 Descending FlightAware
17:49 47.5710 -122.3370 151° Southeast 144 166 400 -480 Descending FlightAware
17:50 47.5514 -122.3217 151° Southeast 135 155 300 10,380 Descending Seattle Center
17:50 47.5358 -122.3078 149° Southeast 143 165 11,000 42,780 Climbing Seattle Center
17:52 47.5300 -122.3020 132° Southeast  Level Estimated